Time;durP1;ratioP1;P1;durP2;ratioP2;P2;SDS_P1;SDS_P2;PMS_P1;PMS_P2;Temp;Humidity;BMP_temperature;BMP_pressure;BME280_temperature;BME280_humidity;BME280_pressure;Samples;Min_cycle;Max_cycle;Signal;HPM_P1;HPM_P2
2021/02/21 00:03:40;;;;;;;92.3;65.9;;;;;;;-2.23;98.68555;99613.98;;;;
2021/02/21 00:13:38;;;;;;;91.7;63.5;;;;;;;-2.33;99.1084;99587.16;;;;
2021/02/21 00:23:35;;;;;;;106.4;72.3;;;;;;;-2.41;98.93555;99581.24;;;;
2021/02/21 00:33:33;;;;;;;85.4;61.5;;;;;;;-2.47;99.50977;99574.95;;;;
2021/02/21 00:43:30;;;;;;;93.7;64.6;;;;;;;-2.51;100;99578.17;;;;
2021/02/21 00:53:27;;;;;;;86.8;61.2;;;;;;;-2.62;99.74609;99576.92;;;;
2021/02/21 01:03:25;;;;;;;66.6;45.6;;;;;;;-2.67;100;99537.11;;;;
2021/02/21 01:13:22;;;;;;;56.5;44.4;;;;;;;-2.7;100;99524.33;;;;
2021/02/21 01:23:19;;;;;;;59.2;43.7;;;;;;;-2.72;100;99519.27;;;;
2021/02/21 01:33:17;;;;;;;61.4;42;;;;;;;-2.81;100;99514.38;;;;
2021/02/21 01:43:15;;;;;;;82.5;57.6;;;;;;;-2.91;100;99524.45;;;;
2021/02/21 01:53:11;;;;;;;76;48.8;;;;;;;-3.01;100;99534.56;;;;
2021/02/21 02:03:15;;;;;;;68.1;52;;;;;;;-3.07;100;99562.55;;;;
2021/02/21 02:13:06;;;;;;;62.5;45.1;;;;;;;-3;100;99562.57;;;;
2021/02/21 02:23:08;;;;;;;56;44;;;;;;;-3.04;100;99556.88;;;;
2021/02/21 02:33:00;;;;;;;64.9;46;;;;;;;-3.02;100;99554.88;;;;
2021/02/21 02:42:58;;;;;;;66.8;46.4;;;;;;;-3.12;100;99578.13;;;;
2021/02/21 02:52:59;;;;;;;71.6;46.8;;;;;;;-3.13;100;99579.97;;;;
2021/02/21 03:02:55;;;;;;;54.7;41.9;;;;;;;-3.06;100;99569.45;;;;
2021/02/21 03:12:50;;;;;;;57.6;39.8;;;;;;;-3.15;100;99581.16;;;;
2021/02/21 03:22:47;;;;;;;52.3;41;;;;;;;-3.14;100;99580.97;;;;
2021/02/21 03:32:44;;;;;;;47.1;33.9;;;;;;;-3.06;100;99574.73;;;;
2021/02/21 03:42:42;;;;;;;46.6;31.1;;;;;;;-2.97;100;99578;;;;
2021/02/21 03:52:39;;;;;;;47.8;32.2;;;;;;;-3.05;100;99589.52;;;;
2021/02/21 04:02:36;;;;;;;44.7;28.7;;;;;;;-3.2;100;99594.94;;;;
2021/02/21 04:12:33;;;;;;;58.2;36;;;;;;;-3.31;100;99594.66;;;;
2021/02/21 04:22:31;;;;;;;60.2;41.8;;;;;;;-3.38;100;99601.7;;;;
2021/02/21 04:32:28;;;;;;;64.7;47.4;;;;;;;-3.46;100;99609.75;;;;
2021/02/21 04:42:25;;;;;;;61.9;42.1;;;;;;;-3.48;100;99602.05;;;;
2021/02/21 04:52:22;;;;;;;77.5;54.3;;;;;;;-3.47;100;99606.3;;;;
2021/02/21 05:02:20;;;;;;;58.8;43.4;;;;;;;-3.45;100;99591.13;;;;
2021/02/21 05:12:17;;;;;;;44.3;33.7;;;;;;;-3.49;100;99587.23;;;;
2021/02/21 05:22:17;;;;;;;50.1;40.3;;;;;;;-3.53;100;99588.63;;;;
2021/02/21 05:32:12;;;;;;;50.3;35.3;;;;;;;-3.55;100;99595.92;;;;
2021/02/21 05:42:09;;;;;;;43.5;32.7;;;;;;;-3.6;100;99593.85;;;;
2021/02/21 05:52:06;;;;;;;32.3;24.5;;;;;;;-3.53;100;99599.16;;;;
2021/02/21 06:02:03;;;;;;;37.7;26.5;;;;;;;-3.29;100;99597.89;;;;
2021/02/21 06:12:00;;;;;;;37.8;26.3;;;;;;;-3.17;100;99593.73;;;;
2021/02/21 06:21:58;;;;;;;48.8;28.6;;;;;;;-2.95;100;99591.81;;;;
2021/02/21 06:31:55;;;;;;;105.7;71.1;;;;;;;-2.74;100;99594.34;;;;
2021/02/21 06:41:52;;;;;;;57.8;43.2;;;;;;;-2.53;100;99585.48;;;;
2021/02/21 06:51:50;;;;;;;59.6;45.2;;;;;;;-2.49;100;99590.15;;;;
2021/02/21 07:01:47;;;;;;;58;42.9;;;;;;;-2.21;100;99598.75;;;;
2021/02/21 07:11:45;;;;;;;55.4;42.7;;;;;;;-1.68;100;99583.76;;;;
2021/02/21 07:21:43;;;;;;;41.2;30.6;;;;;;;-0.98;100;99579.56;;;;
2021/02/21 07:31:40;;;;;;;37.3;29.6;;;;;;;-0.41;100;99588.46;;;;
2021/02/21 07:41:37;;;;;;;52.7;40.4;;;;;;;-0.04;100;99600.89;;;;
2021/02/21 07:51:35;;;;;;;50.7;34.7;;;;;;;0.2;98.58301;99621.31;;;;
2021/02/21 08:01:46;;;;;;;34.5;28;;;;;;;0.8;97.60352;99601.19;;;;
2021/02/21 08:11:41;;;;;;;30.1;23.3;;;;;;;1.44;97.25391;99598.03;;;;
2021/02/21 08:21:28;;;;;;;32.5;28.2;;;;;;;1.97;91.1709;99614.09;;;;
2021/02/21 08:31:36;;;;;;;40.1;33.3;;;;;;;2.37;91.08887;99605.48;;;;
2021/02/21 08:41:33;;;;;;;45.6;35.8;;;;;;;3;89.62207;99603.77;;;;
2021/02/21 08:51:22;;;;;;;45.2;39;;;;;;;3.58;87.34277;99576.16;;;;
2021/02/21 09:01:20;;;;;;;44.3;37.7;;;;;;;4.12;87.42969;99549.94;;;;
2021/02/21 09:11:19;;;;;;;42.7;38.2;;;;;;;4.73;83.93359;99546.33;;;;
2021/02/21 09:21:20;;;;;;;57.1;43.5;;;;;;;5.3;80.7627;99539.61;;;;
2021/02/21 09:31:19;;;;;;;51.6;45.9;;;;;;;5.85;77.67676;99555.44;;;;
2021/02/21 09:41:13;;;;;;;55.5;44.1;;;;;;;6.18;77.0752;99545.61;;;;
2021/02/21 09:51:12;;;;;;;49.4;44.2;;;;;;;6.66;74.26465;99566.05;;;;
2021/02/21 10:01:10;;;;;;;49.4;40.9;;;;;;;7.21;71.45605;99590.48;;;;
2021/02/21 10:11:08;;;;;;;59.2;42.9;;;;;;;7.49;68.47168;99589.27;;;;
2021/02/21 10:21:07;;;;;;;54;43.8;;;;;;;7.62;67.44727;99599.5;;;;
2021/02/21 10:31:06;;;;;;;65;52;;;;;;;7.63;65.54883;99585.03;;;;
2021/02/21 10:41:04;;;;;;;65.9;51;;;;;;;8.22;65.86328;99598.84;;;;
2021/02/21 10:51:04;;;;;;;64.8;52.6;;;;;;;8.49;64.13477;99590.55;;;;
2021/02/21 11:01:01;;;;;;;69.1;52.3;;;;;;;8.78;63.04883;99580.05;;;;
2021/02/21 11:11:01;;;;;;;58.9;51.7;;;;;;;9.22;60.35547;99580.2;;;;
2021/02/21 11:20:59;;;;;;;57.6;47.4;;;;;;;9.52;60.17188;99572.02;;;;
2021/02/21 11:30:58;;;;;;;46.1;41.1;;;;;;;9.88;59.06738;99570.75;;;;
2021/02/21 11:40:57;;;;;;;45.1;34.4;;;;;;;10.05;57.81055;99568.48;;;;
2021/02/21 11:50:56;;;;;;;38.9;34.8;;;;;;;10.27;57.56641;99556.52;;;;
2021/02/21 12:00:54;;;;;;;38.5;33.8;;;;;;;10.34;56.31641;99552.42;;;;
2021/02/21 12:10:55;;;;;;;39;31.9;;;;;;;10.66;56.12012;99551.84;;;;
2021/02/21 12:20:52;;;;;;;32.9;27.1;;;;;;;10.73;55.09375;99543.42;;;;
2021/02/21 12:30:51;;;;;;;26.4;23.5;;;;;;;10.99;53.99219;99542.89;;;;
2021/02/21 12:40:50;;;;;;;26.8;22.9;;;;;;;11.05;54.04395;99528.25;;;;
2021/02/21 12:50:50;;;;;;;33.3;24.3;;;;;;;11.22;53.33691;99519.68;;;;
2021/02/21 13:00:49;;;;;;;25;22.4;;;;;;;11.36;53.75195;99517.08;;;;
2021/02/21 13:10:48;;;;;;;23.2;20.9;;;;;;;11.32;53.09863;99503.36;;;;
2021/02/21 13:20:49;;;;;;;29.8;19.4;;;;;;;11.25;54.22656;99494.01;;;;
2021/02/21 13:30:52;;;;;;;22.2;18.7;;;;;;;11.33;54.53418;99493.37;;;;
2021/02/21 13:40:45;;;;;;;27.7;20.2;;;;;;;11.34;53.9209;99490.39;;;;
2021/02/21 13:50:44;;;;;;;23.7;19.2;;;;;;;11.22;53.46289;99492.7;;;;
2021/02/21 14:00:44;;;;;;;33.4;26.5;;;;;;;11.21;54.84766;99493.78;;;;
2021/02/21 14:10:43;;;;;;;30.9;22.9;;;;;;;10.98;55.93262;99502.7;;;;
2021/02/21 14:20:42;;;;;;;23.3;18;;;;;;;10.74;56.95898;99501.89;;;;
2021/02/21 14:30:40;;;;;;;23.3;18.4;;;;;;;10.65;57.94531;99500.92;;;;
2021/02/21 14:40:39;;;;;;;17.8;15.9;;;;;;;10.4;59.23926;99502.78;;;;
2021/02/21 14:50:38;;;;;;;22.7;17.9;;;;;;;10.15;60.12207;99491.41;;;;
2021/02/21 15:00:37;;;;;;;20.4;18.3;;;;;;;9.89;60.84668;99496.95;;;;
2021/02/21 15:10:36;;;;;;;22.9;19;;;;;;;9.52;62.07324;99486.71;;;;
2021/02/21 15:20:35;;;;;;;18.6;15.9;;;;;;;9.16;62.7207;99484.5;;;;
2021/02/21 15:30:34;;;;;;;22.3;15.8;;;;;;;8.69;63.83691;99492.98;;;;
2021/02/21 15:40:33;;;;;;;18.3;14.4;;;;;;;8.21;64.91602;99489.81;;;;
2021/02/21 15:50:31;;;;;;;27.2;24.3;;;;;;;7.75;66.12891;99482.81;;;;
2021/02/21 16:00:30;;;;;;;20.8;18.6;;;;;;;7.13;67.42676;99486.42;;;;
2021/02/21 16:10:29;;;;;;;30.9;26.6;;;;;;;6.67;69.36133;99492.64;;;;
2021/02/21 16:20:27;;;;;;;15.8;14.1;;;;;;;6.14;70.56348;99499;;;;
2021/02/21 16:30:26;;;;;;;22.2;17.8;;;;;;;5.56;71.95508;99495.23;;;;
2021/02/21 16:40:24;;;;;;;26.7;22.5;;;;;;;5.03;74.23047;99501.34;;;;
2021/02/21 16:50:22;;;;;;;31.4;27.4;;;;;;;4.59;75.89258;99505.83;;;;
2021/02/21 17:00:23;;;;;;;37.7;32.9;;;;;;;4.2;76.73438;99520.98;;;;
2021/02/21 17:10:19;;;;;;;41.4;36.3;;;;;;;3.92;78.83887;99526.41;;;;
2021/02/21 17:20:19;;;;;;;27.4;23.4;;;;;;;3.63;78.9082;99520.3;;;;
2021/02/21 17:30:20;;;;;;;34.8;24.2;;;;;;;3.41;80.47656;99514.83;;;;
2021/02/21 17:40:14;;;;;;;17.9;15.6;;;;;;;3.27;81.02637;99520.67;;;;
2021/02/21 17:50:12;;;;;;;30.3;27.2;;;;;;;3.01;81.45313;99522.05;;;;
2021/02/21 18:00:10;;;;;;;43.9;31.5;;;;;;;2.78;82.99121;99517.55;;;;
2021/02/21 18:10:08;;;;;;;55.2;42.6;;;;;;;2.54;83.99414;99526.61;;;;
2021/02/21 18:20:06;;;;;;;55.4;45.4;;;;;;;2.26;84.1377;99526.48;;;;
2021/02/21 18:30:04;;;;;;;69.5;51.7;;;;;;;2;85.68848;99525.9;;;;
2021/02/21 18:40:02;;;;;;;68.8;61.4;;;;;;;1.82;87.63672;99539.27;;;;
2021/02/21 18:50:00;;;;;;;77.6;66.8;;;;;;;1.71;88.54883;99539.22;;;;
2021/02/21 18:59:59;;;;;;;80.6;65.2;;;;;;;1.55;89.29688;99538.02;;;;
2021/02/21 19:09:56;;;;;;;92.2;60.5;;;;;;;1.55;91.01367;99537.2;;;;
2021/02/21 19:19:54;;;;;;;99.6;71.8;;;;;;;1.72;93.58008;99538.19;;;;
2021/02/21 19:29:52;;;;;;;115.3;71.6;;;;;;;1.77;93.17383;99541.77;;;;
2021/02/21 19:39:50;;;;;;;97.6;76.8;;;;;;;1.79;93.03418;99542.38;;;;
2021/02/21 19:49:48;;;;;;;95.4;70.8;;;;;;;1.72;93.04297;99554.95;;;;
2021/02/21 19:59:46;;;;;;;94.1;74.7;;;;;;;1.57;93.1084;99546.56;;;;
2021/02/21 20:09:44;;;;;;;99.5;68.1;;;;;;;1.41;93.38184;99548.02;;;;
2021/02/21 20:19:44;;;;;;;80.9;66.3;;;;;;;1.35;94.32422;99558.73;;;;
2021/02/21 20:29:40;;;;;;;89.3;67.2;;;;;;;1.34;94.83789;99563.23;;;;
2021/02/21 20:39:38;;;;;;;91.6;68.7;;;;;;;1.27;95.89844;99562.5;;;;
2021/02/21 20:59:54;;;;;;;93.4;73.4;;;;;;;1.09;96.51465;99582.92;;;;
2021/02/21 22:39:14;;;;;;;126.7;93.2;;;;;;;0.04;100;99582.06;;;;
2021/02/21 22:49:10;;;;;;;114.6;86.3;;;;;;;-0.14;100;99582.8;;;;
2021/02/21 22:59:07;;;;;;;90.7;73;;;;;;;-0.24;100;99585.1;;;;
2021/02/21 23:09:05;;;;;;;96.9;72.6;;;;;;;-0.33;100;99590.88;;;;
2021/02/21 23:19:03;;;;;;;93.3;71.2;;;;;;;-0.36;100;99592.11;;;;
2021/02/21 23:29:01;;;;;;;96.9;69.5;;;;;;;-0.4;100;99588.27;;;;
2021/02/21 23:38:58;;;;;;;85.9;64.2;;;;;;;-0.43;100;99595.81;;;;
2021/02/21 23:48:56;;;;;;;128.5;95.3;;;;;;;-0.71;100;99593.5;;;;
2021/02/21 23:58:54;;;;;;;117.6;85.2;;;;;;;-0.9;100;99610.28;;;;
